sensor_id;sensor_type;location;lat;lon;timestamp;pressure;altitude;pressure_sealevel;temperature;humidity
53940;BME280;39850;43.324;21.916;2024-03-23T00:54:44;993.0;;;7.6;56.0
53940;BME280;39850;43.324;21.916;2024-03-23T00:59:21;993.0;;;8.2;55.0
53940;BME280;39850;43.324;21.916;2024-03-23T01:03:58;993.0;;;8.2;55.0
53940;BME280;39850;43.324;21.916;2024-03-23T01:36:18;993.0;;;7.3;59.0
53940;BME280;39850;43.324;21.916;2024-03-23T01:40:58;993.0;;;7.3;59.0
53940;BME280;39850;43.324;21.916;2024-03-23T01:45:37;993.0;;;7.3;59.0
53940;BME280;39850;43.324;21.916;2024-03-23T01:50:16;993.0;;;7.3;59.0
53940;BME280;39850;43.324;21.916;2024-03-23T01:54:53;993.0;;;7.3;59.0
53940;BME280;39850;43.324;21.916;2024-03-23T01:59:31;993.0;;;7.3;59.0
53940;BME280;39850;43.324;21.916;2024-03-23T02:04:08;993.0;;;7.3;59.0
53940;BME280;39850;43.324;21.916;2024-03-23T02:08:45;993.0;;;7.3;59.0
53940;BME280;39850;43.324;21.916;2024-03-23T02:13:22;993.0;;;7.3;59.0
53940;BME280;39850;43.324;21.916;2024-03-23T02:17:59;993.0;;;7.3;59.0
53940;BME280;39850;43.324;21.916;2024-03-23T02:22:39;993.0;;;7.3;59.0
53940;BME280;39850;43.324;21.916;2024-03-23T02:59:31;993.0;;;6.7;60.0
53940;BME280;39850;43.324;21.916;2024-03-23T03:04:08;993.0;;;6.7;60.0
53940;BME280;39850;43.324;21.916;2024-03-23T03:08:44;992.0;;;6.6;61.0
53940;BME280;39850;43.324;21.916;2024-03-23T03:13:21;992.0;;;6.6;61.0
53940;BME280;39850;43.324;21.916;2024-03-23T03:17:58;992.0;;;6.4;61.0
53940;BME280;39850;43.324;21.916;2024-03-23T03:22:35;992.0;;;6.4;61.0
53940;BME280;39850;43.324;21.916;2024-03-23T03:27:12;992.0;;;6.3;61.0
53940;BME280;39850;43.324;21.916;2024-03-23T03:31:49;992.0;;;6.3;61.0
53940;BME280;39850;43.324;21.916;2024-03-23T03:36:26;992.0;;;6.2;61.0
53940;BME280;39850;43.324;21.916;2024-03-23T03:41:04;992.0;;;6.2;61.0
53940;BME280;39850;43.324;21.916;2024-03-23T04:18:16;993.0;;;6.4;61.0
53940;BME280;39850;43.324;21.916;2024-03-23T04:22:53;993.0;;;6.4;61.0
53940;BME280;39850;43.324;21.916;2024-03-23T04:27:29;993.0;;;6.4;61.0
53940;BME280;39850;43.324;21.916;2024-03-23T04:32:06;993.0;;;6.4;61.0
53940;BME280;39850;43.324;21.916;2024-03-23T04:36:43;993.0;;;6.4;61.0
53940;BME280;39850;43.324;21.916;2024-03-23T04:41:20;993.0;;;6.4;61.0
53940;BME280;39850;43.324;21.916;2024-03-23T04:45:57;993.0;;;6.4;61.0
53940;BME280;39850;43.324;21.916;2024-03-23T04:50:34;993.0;;;6.4;61.0
53940;BME280;39850;43.324;21.916;2024-03-23T04:55:11;993.0;;;6.4;61.0
53940;BME280;39850;43.324;21.916;2024-03-23T04:59:48;993.0;;;6.4;62.0
53940;BME280;39850;43.324;21.916;2024-03-23T05:04:25;993.0;;;6.4;62.0
53940;BME280;39850;43.324;21.916;2024-03-23T05:36:42;993.0;;;6.4;64.0
53940;BME280;39850;43.324;21.916;2024-03-23T05:41:18;993.0;;;6.4;64.0
53940;BME280;39850;43.324;21.916;2024-03-23T05:45:57;992.0;;;6.4;63.0
53940;BME280;39850;43.324;21.916;2024-03-23T05:50:34;992.0;;;6.4;63.0
53940;BME280;39850;43.324;21.916;2024-03-23T05:55:11;992.0;;;6.4;63.0
53940;BME280;39850;43.324;21.916;2024-03-23T05:59:48;992.0;;;6.4;62.0
53940;BME280;39850;43.324;21.916;2024-03-23T06:04:25;992.0;;;6.4;62.0
53940;BME280;39850;43.324;21.916;2024-03-23T06:09:01;992.0;;;6.4;61.0
53940;BME280;39850;43.324;21.916;2024-03-23T06:13:38;992.0;;;6.4;61.0
53940;BME280;39850;43.324;21.916;2024-03-23T06:18:15;992.0;;;6.4;62.0
53940;BME280;39850;43.324;21.916;2024-03-23T06:22:52;992.0;;;6.4;62.0
53940;BME280;39850;43.324;21.916;2024-03-23T06:59:49;992.0;;;12.5;42.0
53940;BME280;39850;43.324;21.916;2024-03-23T07:04:26;992.0;;;12.5;42.0
53940;BME280;39850;43.324;21.916;2024-03-23T07:09:03;992.0;;;12.6;41.0
53940;BME280;39850;43.324;21.916;2024-03-23T07:13:40;992.0;;;12.6;41.0
53940;BME280;39850;43.324;21.916;2024-03-23T07:18:17;992.0;;;12.6;41.0
53940;BME280;39850;43.324;21.916;2024-03-23T07:22:53;992.0;;;12.6;41.0
53940;BME280;39850;43.324;21.916;2024-03-23T07:27:30;992.0;;;12.6;40.0
53940;BME280;39850;43.324;21.916;2024-03-23T07:32:07;992.0;;;12.6;40.0
53940;BME280;39850;43.324;21.916;2024-03-23T07:36:43;992.0;;;12.7;39.0
53940;BME280;39850;43.324;21.916;2024-03-23T07:41:21;992.0;;;12.7;39.0
53940;BME280;39850;43.324;21.916;2024-03-23T07:45:59;992.0;;;12.7;39.0
53940;BME280;39850;43.324;21.916;2024-03-23T08:18:22;992.0;;;16.8;32.0
53940;BME280;39850;43.324;21.916;2024-03-23T08:22:59;992.0;;;16.8;32.0
53940;BME280;39850;43.324;21.916;2024-03-23T08:27:36;992.0;;;17.0;32.0
53940;BME280;39850;43.324;21.916;2024-03-23T08:32:13;992.0;;;17.0;32.0
53940;BME280;39850;43.324;21.916;2024-03-23T08:36:50;991.0;;;17.1;32.0
53940;BME280;39850;43.324;21.916;2024-03-23T08:41:28;991.0;;;17.1;32.0
53940;BME280;39850;43.324;21.916;2024-03-23T08:46:08;991.0;;;17.1;32.0
53940;BME280;39850;43.324;21.916;2024-03-23T08:50:47;991.0;;;17.2;32.0
53940;BME280;39850;43.324;21.916;2024-03-23T08:55:24;991.0;;;17.2;32.0
53940;BME280;39850;43.324;21.916;2024-03-23T09:00:00;991.0;;;17.2;32.0
53940;BME280;39850;43.324;21.916;2024-03-23T09:04:37;991.0;;;17.2;32.0
53940;BME280;39850;43.324;21.916;2024-03-23T09:36:55;990.0;;;19.1;32.0
53940;BME280;39850;43.324;21.916;2024-03-23T09:41:32;990.0;;;19.1;32.0
53940;BME280;39850;43.324;21.916;2024-03-23T09:46:10;990.0;;;19.1;32.0
53940;BME280;39850;43.324;21.916;2024-03-23T09:50:47;990.0;;;18.6;32.0
53940;BME280;39850;43.324;21.916;2024-03-23T09:55:23;990.0;;;18.6;32.0
53940;BME280;39850;43.324;21.916;2024-03-23T10:00:01;990.0;;;18.2;32.0
53940;BME280;39850;43.324;21.916;2024-03-23T10:04:40;990.0;;;18.2;32.0
53940;BME280;39850;43.324;21.916;2024-03-23T10:09:18;990.0;;;18.0;33.0
53940;BME280;39850;43.324;21.916;2024-03-23T10:13:54;990.0;;;18.0;33.0
53940;BME280;39850;43.324;21.916;2024-03-23T10:18:31;990.0;;;17.7;34.0
53940;BME280;39850;43.324;21.916;2024-03-23T10:23:18;990.0;;;17.7;34.0
53940;BME280;39850;43.324;21.916;2024-03-23T11:00:34;988.0;;;18.9;30.0
53940;BME280;39850;43.324;21.916;2024-03-23T11:05:47;988.0;;;18.9;30.0
53940;BME280;39850;43.324;21.916;2024-03-23T11:10:30;988.0;;;19.0;29.0
53940;BME280;39850;43.324;21.916;2024-03-23T11:15:13;988.0;;;19.0;29.0
53940;BME280;39850;43.324;21.916;2024-03-23T11:19:58;988.0;;;19.0;28.0
53940;BME280;39850;43.324;21.916;2024-03-23T11:24:35;988.0;;;19.0;28.0
53940;BME280;39850;43.324;21.916;2024-03-23T11:29:16;988.0;;;19.0;28.0
53940;BME280;39850;43.324;21.916;2024-03-23T11:34:06;988.0;;;19.0;28.0
53940;BME280;39850;43.324;21.916;2024-03-23T11:38:43;988.0;;;19.0;28.0
53940;BME280;39850;43.324;21.916;2024-03-23T11:43:25;988.0;;;19.0;28.0
53940;BME280;39850;43.324;21.916;2024-03-23T12:20:54;987.0;;;18.9;28.0
53940;BME280;39850;43.324;21.916;2024-03-23T12:25:31;987.0;;;18.9;28.0
53940;BME280;39850;43.324;21.916;2024-03-23T12:30:13;986.0;;;19.0;28.0
53940;BME280;39850;43.324;21.916;2024-03-23T12:34:49;986.0;;;19.0;28.0
53940;BME280;39850;43.324;21.916;2024-03-23T12:39:27;986.0;;;19.1;28.0
53940;BME280;39850;43.324;21.916;2024-03-23T12:44:04;986.0;;;19.1;28.0
53940;BME280;39850;43.324;21.916;2024-03-23T12:48:41;986.0;;;19.2;27.0
53940;BME280;39850;43.324;21.916;2024-03-23T12:53:17;986.0;;;19.2;27.0
53940;BME280;39850;43.324;21.916;2024-03-23T12:57:54;986.0;;;19.2;27.0
53940;BME280;39850;43.324;21.916;2024-03-23T13:02:31;986.0;;;19.2;27.0
53940;BME280;39850;43.324;21.916;2024-03-23T13:07:07;986.0;;;19.2;27.0
53940;BME280;39850;43.324;21.916;2024-03-23T13:39:26;985.0;;;19.0;24.0
53940;BME280;39850;43.324;21.916;2024-03-23T13:44:02;985.0;;;19.0;24.0
53940;BME280;39850;43.324;21.916;2024-03-23T13:48:39;985.0;;;19.0;25.0
53940;BME280;39850;43.324;21.916;2024-03-23T13:53:16;985.0;;;19.0;25.0
53940;BME280;39850;43.324;21.916;2024-03-23T13:57:53;985.0;;;18.9;26.0
53940;BME280;39850;43.324;21.916;2024-03-23T14:02:30;985.0;;;18.9;26.0
53940;BME280;39850;43.324;21.916;2024-03-23T14:07:07;985.0;;;18.9;26.0
53940;BME280;39850;43.324;21.916;2024-03-23T14:11:44;985.0;;;18.9;26.0
53940;BME280;39850;43.324;21.916;2024-03-23T14:16:22;985.0;;;18.9;26.0
53940;BME280;39850;43.324;21.916;2024-03-23T14:21:02;985.0;;;18.9;26.0
53940;BME280;39850;43.324;21.916;2024-03-23T14:25:39;985.0;;;18.9;26.0
53940;BME280;39850;43.324;21.916;2024-03-23T14:57:56;984.0;;;19.0;24.0
53940;BME280;39850;43.324;21.916;2024-03-23T15:02:33;984.0;;;19.0;24.0
53940;BME280;39850;43.324;21.916;2024-03-23T15:07:10;984.0;;;19.0;24.0
53940;BME280;39850;43.324;21.916;2024-03-23T15:11:46;984.0;;;19.0;25.0
53940;BME280;39850;43.324;21.916;2024-03-23T15:16:23;984.0;;;19.0;25.0
53940;BME280;39850;43.324;21.916;2024-03-23T15:21:04;984.0;;;19.0;25.0
53940;BME280;39850;43.324;21.916;2024-03-23T15:25:41;984.0;;;19.0;25.0
53940;BME280;39850;43.324;21.916;2024-03-23T15:30:18;984.0;;;19.0;25.0
53940;BME280;39850;43.324;21.916;2024-03-23T15:34:55;984.0;;;19.0;25.0
53940;BME280;39850;43.324;21.916;2024-03-23T15:39:32;984.0;;;18.9;25.0
53940;BME280;39850;43.324;21.916;2024-03-23T15:44:08;984.0;;;18.9;25.0
53940;BME280;39850;43.324;21.916;2024-03-23T16:21:06;984.0;;;18.0;27.0
53940;BME280;39850;43.324;21.916;2024-03-23T16:25:49;984.0;;;18.0;27.0
53940;BME280;39850;43.324;21.916;2024-03-23T16:30:26;984.0;;;18.0;26.0
53940;BME280;39850;43.324;21.916;2024-03-23T16:35:04;984.0;;;18.0;26.0
53940;BME280;39850;43.324;21.916;2024-03-23T16:39:40;983.0;;;18.1;26.0
53940;BME280;39850;43.324;21.916;2024-03-23T16:44:17;983.0;;;18.1;26.0
53940;BME280;39850;43.324;21.916;2024-03-23T16:48:53;983.0;;;18.2;26.0
53940;BME280;39850;43.324;21.916;2024-03-23T16:53:31;983.0;;;18.2;26.0
53940;BME280;39850;43.324;21.916;2024-03-23T16:58:09;983.0;;;18.2;26.0
53940;BME280;39850;43.324;21.916;2024-03-23T17:02:47;983.0;;;18.2;26.0
53940;BME280;39850;43.324;21.916;2024-03-23T17:07:23;983.0;;;18.2;26.0
53940;BME280;39850;43.324;21.916;2024-03-23T17:39:42;984.0;;;17.1;29.0
53940;BME280;39850;43.324;21.916;2024-03-23T17:44:19;984.0;;;17.1;29.0
53940;BME280;39850;43.324;21.916;2024-03-23T17:48:55;984.0;;;17.2;30.0
53940;BME280;39850;43.324;21.916;2024-03-23T17:53:40;984.0;;;17.2;30.0
53940;BME280;39850;43.324;21.916;2024-03-23T17:58:16;984.0;;;17.2;30.0
53940;BME280;39850;43.324;21.916;2024-03-23T18:02:53;984.0;;;17.3;30.0
53940;BME280;39850;43.324;21.916;2024-03-23T18:07:30;984.0;;;17.3;30.0
53940;BME280;39850;43.324;21.916;2024-03-23T18:12:07;984.0;;;17.3;30.0
53940;BME280;39850;43.324;21.916;2024-03-23T18:16:44;984.0;;;17.3;30.0
53940;BME280;39850;43.324;21.916;2024-03-23T18:21:21;984.0;;;17.3;30.0
53940;BME280;39850;43.324;21.916;2024-03-23T18:25:58;984.0;;;17.3;30.0
53940;BME280;39850;43.324;21.916;2024-03-23T19:02:49;984.0;;;16.3;32.0
53940;BME280;39850;43.324;21.916;2024-03-23T19:07:26;984.0;;;16.3;32.0
53940;BME280;39850;43.324;21.916;2024-03-23T19:12:03;984.0;;;16.2;32.0
53940;BME280;39850;43.324;21.916;2024-03-23T19:16:39;984.0;;;16.2;32.0
53940;BME280;39850;43.324;21.916;2024-03-23T19:21:16;984.0;;;16.2;32.0
53940;BME280;39850;43.324;21.916;2024-03-23T19:25:55;984.0;;;16.2;32.0
53940;BME280;39850;43.324;21.916;2024-03-23T19:30:32;984.0;;;16.2;32.0
53940;BME280;39850;43.324;21.916;2024-03-23T19:35:10;984.0;;;16.2;32.0
53940;BME280;39850;43.324;21.916;2024-03-23T19:39:47;984.0;;;16.2;32.0
53940;BME280;39850;43.324;21.916;2024-03-23T19:44:24;984.0;;;16.2;32.0
53940;BME280;39850;43.324;21.916;2024-03-23T20:21:23;984.0;;;15.3;36.0
53940;BME280;39850;43.324;21.916;2024-03-23T20:26:00;984.0;;;15.3;36.0
53940;BME280;39850;43.324;21.916;2024-03-23T20:30:36;984.0;;;15.4;37.0
53940;BME280;39850;43.324;21.916;2024-03-23T20:35:13;984.0;;;15.4;37.0
53940;BME280;39850;43.324;21.916;2024-03-23T20:39:51;984.0;;;15.5;38.0
53940;BME280;39850;43.324;21.916;2024-03-23T20:44:28;984.0;;;15.5;38.0
53940;BME280;39850;43.324;21.916;2024-03-23T20:49:05;984.0;;;15.5;38.0
53940;BME280;39850;43.324;21.916;2024-03-23T20:53:42;984.0;;;15.5;38.0
53940;BME280;39850;43.324;21.916;2024-03-23T20:58:20;984.0;;;15.5;38.0
53940;BME280;39850;43.324;21.916;2024-03-23T21:02:57;985.0;;;15.5;38.0
53940;BME280;39850;43.324;21.916;2024-03-23T21:07:34;985.0;;;15.5;38.0
53940;BME280;39850;43.324;21.916;2024-03-23T21:39:54;985.0;;;15.5;40.0
53940;BME280;39850;43.324;21.916;2024-03-23T21:44:31;985.0;;;15.5;40.0
53940;BME280;39850;43.324;21.916;2024-03-23T21:49:08;985.0;;;15.5;40.0
53940;BME280;39850;43.324;21.916;2024-03-23T21:53:45;985.0;;;15.5;40.0
53940;BME280;39850;43.324;21.916;2024-03-23T21:58:26;985.0;;;15.5;40.0
53940;BME280;39850;43.324;21.916;2024-03-23T22:03:04;985.0;;;15.5;40.0
53940;BME280;39850;43.324;21.916;2024-03-23T22:07:41;985.0;;;15.5;40.0
53940;BME280;39850;43.324;21.916;2024-03-23T22:12:18;985.0;;;15.5;40.0
53940;BME280;39850;43.324;21.916;2024-03-23T22:16:55;985.0;;;15.5;40.0
53940;BME280;39850;43.324;21.916;2024-03-23T22:21:32;985.0;;;15.5;40.0
53940;BME280;39850;43.324;21.916;2024-03-23T22:26:08;985.0;;;15.5;40.0
53940;BME280;39850;43.324;21.916;2024-03-23T23:03:21;985.0;;;14.4;42.0
53940;BME280;39850;43.324;21.916;2024-03-23T23:07:58;985.0;;;14.4;42.0
53940;BME280;39850;43.324;21.916;2024-03-23T23:12:35;984.0;;;14.4;42.0
53940;BME280;39850;43.324;21.916;2024-03-23T23:17:11;984.0;;;14.4;42.0
53940;BME280;39850;43.324;21.916;2024-03-23T23:21:49;984.0;;;14.4;42.0
53940;BME280;39850;43.324;21.916;2024-03-23T23:26:26;984.0;;;14.4;42.0
53940;BME280;39850;43.324;21.916;2024-03-23T23:31:03;984.0;;;14.4;42.0
53940;BME280;39850;43.324;21.916;2024-03-23T23:35:40;984.0;;;14.4;42.0
53940;BME280;39850;43.324;21.916;2024-03-23T23:40:16;984.0;;;14.4;42.0
53940;BME280;39850;43.324;21.916;2024-03-23T23:44:53;984.0;;;14.4;42.0
